createdAt,value
2023-10-05T00:02:07.207Z,30.90
2023-10-05T00:04:45.277Z,31.02
2023-10-05T00:07:25.475Z,30.89
2023-10-05T00:09:54.095Z,30.89
2023-10-05T00:12:24.811Z,30.83
2023-10-05T00:15:06.823Z,30.93
2023-10-05T00:17:38.870Z,30.71
2023-10-05T00:20:31.580Z,30.83
2023-10-05T00:23:00.779Z,30.74
2023-10-05T00:25:31.100Z,30.92
2023-10-05T00:27:59.461Z,30.82
2023-10-05T00:30:27.849Z,31.05
2023-10-05T00:33:00.131Z,31.37
2023-10-05T00:35:31.096Z,31.29
2023-10-05T00:38:10.569Z,31.30
2023-10-05T00:40:44.625Z,31.47
2023-10-05T00:43:23.664Z,31.28
2023-10-05T00:45:53.507Z,30.92
2023-10-05T00:48:36.744Z,30.84
2023-10-05T00:51:11.201Z,31.35
2023-10-05T00:53:41.808Z,31.31
2023-10-05T00:56:13.456Z,31.21
2023-10-05T00:58:50.674Z,31.35
2023-10-05T01:01:35.251Z,31.90
2023-10-05T01:04:12.817Z,31.69
2023-10-05T01:06:41.237Z,31.63
2023-10-05T01:09:31.097Z,32.00
2023-10-05T01:12:09.450Z,31.70
2023-10-05T01:14:54.595Z,32.17
2023-10-05T01:17:30.005Z,31.86
2023-10-05T01:20:09.489Z,32.44
2023-10-05T01:22:41.159Z,32.02
2023-10-05T01:25:11.015Z,32.03
2023-10-05T01:27:39.559Z,32.13
2023-10-05T01:30:09.544Z,32.59
2023-10-05T01:32:38.090Z,32.37
2023-10-05T01:35:12.538Z,32.84
2023-10-05T01:37:42.234Z,33.27
2023-10-05T01:40:22.796Z,33.36
2023-10-05T01:42:53.911Z,33.81
2023-10-05T01:45:32.065Z,34.03
2023-10-05T01:48:06.344Z,34.02
2023-10-05T01:50:34.754Z,34.65
2023-10-05T01:53:20.760Z,34.89
2023-10-05T01:55:51.421Z,35.37
2023-10-05T01:58:33.459Z,35.41
2023-10-05T02:01:01.902Z,35.86
2023-10-05T02:03:30.239Z,36.10
2023-10-05T02:06:06.964Z,36.19
2023-10-05T02:08:38.241Z,36.52
2023-10-05T02:11:06.679Z,36.89
2023-10-05T02:13:35.282Z,37.01
2023-10-05T02:16:04.676Z,36.98
2023-10-05T02:18:33.097Z,37.15
2023-10-05T02:21:11.804Z,37.75
2023-10-05T02:23:42.723Z,37.67
2023-10-05T02:26:28.650Z,37.91
2023-10-05T02:28:57.374Z,38.08
2023-10-05T02:31:30.783Z,38.27
2023-10-05T02:33:59.153Z,38.45
2023-10-05T02:36:32.428Z,38.78
2023-10-05T02:39:03.379Z,38.78
2023-10-05T02:41:41.021Z,39.18
2023-10-05T02:44:19.177Z,39.15
2023-10-05T02:46:50.432Z,39.41
2023-10-05T02:49:26.133Z,39.50
2023-10-05T02:51:55.003Z,40.02
2023-10-05T02:54:27.250Z,40.18
2023-10-05T02:56:56.021Z,40.45
2023-10-05T02:59:28.839Z,40.48
2023-10-05T03:02:02.444Z,40.65
2023-10-05T03:04:47.207Z,40.95
2023-10-05T03:07:20.382Z,41.17
2023-10-05T03:09:51.090Z,41.55
2023-10-05T03:12:22.443Z,41.61
2023-10-05T03:14:52.592Z,41.87
2023-10-05T03:17:22.820Z,41.70
2023-10-05T03:19:54.525Z,42.08
2023-10-05T03:22:26.383Z,42.45
2023-10-05T03:24:55.996Z,42.41
2023-10-05T03:27:24.766Z,42.72
2023-10-05T03:29:54.635Z,42.60
2023-10-05T03:32:24.444Z,43.04
2023-10-05T03:34:58.032Z,43.06
2023-10-05T03:37:26.774Z,43.49
2023-10-05T03:40:08.770Z,43.67
2023-10-05T03:42:37.693Z,43.77
2023-10-05T03:45:11.191Z,43.55
2023-10-05T03:47:40.327Z,43.78
2023-10-05T03:50:19.208Z,43.93
2023-10-05T03:52:49.045Z,43.83
2023-10-05T03:55:21.190Z,43.93
2023-10-05T03:57:50.470Z,43.96
2023-10-05T04:00:25.529Z,44.44
2023-10-05T04:02:55.810Z,44.38
2023-10-05T04:05:25.410Z,44.50
2023-10-05T04:07:54.824Z,44.44
2023-10-05T04:10:25.715Z,44.81
2023-10-05T04:12:55.118Z,44.91
2023-10-05T04:15:23.406Z,45.10
2023-10-05T04:17:51.856Z,44.96
2023-10-05T04:20:24.046Z,45.17
2023-10-05T04:22:52.380Z,44.80
2023-10-05T04:25:20.654Z,45.04
2023-10-05T04:27:49.186Z,45.38
2023-10-05T04:30:20.804Z,45.13
2023-10-05T04:32:49.434Z,45.30
2023-10-05T04:35:30.018Z,45.11
2023-10-05T04:37:58.978Z,45.38
2023-10-05T04:40:27.427Z,45.55
2023-10-05T04:43:00.880Z,45.60
2023-10-05T04:45:30.043Z,45.92
2023-10-05T04:48:01.448Z,45.76
2023-10-05T04:50:30.378Z,45.96
2023-10-05T04:53:02.873Z,46.03
2023-10-05T04:55:34.093Z,46.12
2023-10-05T04:58:20.951Z,46.42
2023-10-05T05:00:49.294Z,46.37
2023-10-05T05:03:26.622Z,46.35
2023-10-05T05:06:03.039Z,46.93
2023-10-05T05:08:33.755Z,46.57
2023-10-05T05:11:02.177Z,46.82
2023-10-05T05:13:30.690Z,46.69
2023-10-05T05:15:59.167Z,47.14
2023-10-05T05:18:27.600Z,46.93
2023-10-05T05:20:56.068Z,47.03
2023-10-05T05:23:24.301Z,47.39
2023-10-05T05:25:56.866Z,47.41
2023-10-05T05:28:25.442Z,47.39
2023-10-05T05:30:55.059Z,47.54
2023-10-05T05:33:24.862Z,47.70
2023-10-05T05:35:53.551Z,47.76
2023-10-05T05:38:21.755Z,47.83
2023-10-05T05:40:51.395Z,48.28
2023-10-05T05:43:19.896Z,48.36
2023-10-05T05:45:48.205Z,48.39
2023-10-05T05:48:16.447Z,48.44
2023-10-05T05:50:45.660Z,48.44
2023-10-05T05:53:13.969Z,48.56
2023-10-05T05:55:55.144Z,48.68
2023-10-05T05:58:23.563Z,48.44
2023-10-05T06:00:54.752Z,48.93
2023-10-05T06:03:23.237Z,48.99
2023-10-05T06:05:51.528Z,49.14
2023-10-05T06:08:22.807Z,49.23
2023-10-05T06:10:53.408Z,49.19
2023-10-05T06:13:21.908Z,49.46
2023-10-05T06:15:50.148Z,49.43
2023-10-05T06:18:18.914Z,49.48
2023-10-05T06:20:49.101Z,49.53
2023-10-05T06:23:17.321Z,49.62
2023-10-05T06:25:49.781Z,49.74
2023-10-05T06:28:19.380Z,49.94
2023-10-05T06:30:47.747Z,49.94
2023-10-05T06:33:16.075Z,50.12
2023-10-05T06:35:44.398Z,50.13
2023-10-05T06:38:12.734Z,50.45
2023-10-05T06:40:41.772Z,50.41
2023-10-05T06:43:10.496Z,50.36
2023-10-05T06:45:44.781Z,50.47
2023-10-05T06:48:13.217Z,50.53
2023-10-05T06:50:41.522Z,50.67
2023-10-05T06:53:09.946Z,50.68
2023-10-05T06:55:38.308Z,50.67
2023-10-05T06:58:06.804Z,50.71
2023-10-05T07:00:35.188Z,50.78
2023-10-05T07:03:08.564Z,50.65
2023-10-05T07:05:37.255Z,50.66
2023-10-05T07:08:06.068Z,50.77
2023-10-05T07:10:34.309Z,50.83
2023-10-05T07:13:02.981Z,50.91
2023-10-05T07:15:31.566Z,50.97
2023-10-05T07:18:01.236Z,50.94
2023-10-05T07:20:30.522Z,51.01
2023-10-05T07:23:04.040Z,51.05
2023-10-05T07:25:32.269Z,51.01
2023-10-05T07:28:00.535Z,51.10
2023-10-05T07:30:30.857Z,51.21
2023-10-05T07:33:12.908Z,51.32
2023-10-05T07:35:44.019Z,51.39
2023-10-05T07:38:16.594Z,51.43
2023-10-05T07:40:45.134Z,51.71
2023-10-05T07:43:13.867Z,51.55
2023-10-05T07:45:43.399Z,51.56
2023-10-05T07:48:13.931Z,51.68
2023-10-05T07:50:42.365Z,51.67
2023-10-05T07:53:11.251Z,51.85
2023-10-05T07:55:39.675Z,51.69
2023-10-05T07:58:08.075Z,51.85
2023-10-05T08:00:36.742Z,51.66
2023-10-05T08:03:07.317Z,51.99
2023-10-05T08:05:36.326Z,51.90
2023-10-05T08:08:06.985Z,52.01
2023-10-05T08:10:35.399Z,52.15
2023-10-05T08:13:07.712Z,52.11
2023-10-05T08:15:36.697Z,52.17
2023-10-05T08:18:06.961Z,52.20
2023-10-05T08:20:36.193Z,52.21
2023-10-05T08:23:04.733Z,52.41
2023-10-05T08:25:33.217Z,52.47
2023-10-05T08:28:03.202Z,52.61
2023-10-05T08:30:35.488Z,52.51
2023-10-05T08:33:10.883Z,52.80
2023-10-05T08:35:42.744Z,52.95
2023-10-05T08:38:17.698Z,52.73
2023-10-05T08:40:47.380Z,52.91
2023-10-05T08:43:19.016Z,53.02
2023-10-05T08:45:54.298Z,53.17
2023-10-05T08:48:31.010Z,53.27
2023-10-05T08:51:15.197Z,53.11
2023-10-05T08:54:02.003Z,53.30
2023-10-05T08:56:33.360Z,53.42
2023-10-05T08:59:09.395Z,53.39
2023-10-05T09:01:38.190Z,53.50
2023-10-05T09:04:14.009Z,53.60
2023-10-05T09:07:18.933Z,53.67
2023-10-05T09:09:54.200Z,53.58
2023-10-05T09:12:43.929Z,53.68
2023-10-05T09:15:21.493Z,53.55
2023-10-05T09:18:07.725Z,53.71
2023-10-05T09:20:40.280Z,53.82
2023-10-05T09:23:11.817Z,54.05
2023-10-05T09:25:46.910Z,54.22
2023-10-05T09:28:53.706Z,54.19
2023-10-05T09:31:38.728Z,54.37
2023-10-05T09:34:08.337Z,54.42
2023-10-05T09:36:39.448Z,54.47
2023-10-05T09:39:11.109Z,54.38
2023-10-05T09:41:40.272Z,54.61
2023-10-05T09:44:12.881Z,54.74
2023-10-05T09:46:41.399Z,54.60
2023-10-05T09:49:16.237Z,54.94
2023-10-05T09:51:50.301Z,54.75
2023-10-05T09:54:24.549Z,55.00
2023-10-05T09:56:53.993Z,55.17
2023-10-05T09:59:24.093Z,55.24
2023-10-05T10:01:53.748Z,55.30
2023-10-05T10:04:38.933Z,55.21
2023-10-05T10:07:22.577Z,55.40
2023-10-05T10:09:57.914Z,55.49
2023-10-05T10:12:35.545Z,55.69
2023-10-05T10:15:04.548Z,55.43
2023-10-05T10:17:34.055Z,55.55
2023-10-05T10:20:37.056Z,55.76
2023-10-05T10:23:37.206Z,55.87
2023-10-05T10:26:18.856Z,55.90
2023-10-05T10:29:15.066Z,55.82
2023-10-05T10:31:45.744Z,55.99
2023-10-05T10:34:21.316Z,56.12
2023-10-05T10:36:54.424Z,56.04
2023-10-05T10:39:41.325Z,56.18
2023-10-05T10:42:10.144Z,56.31
2023-10-05T10:44:51.679Z,56.26
2023-10-05T10:47:21.650Z,56.47
2023-10-05T10:50:24.589Z,56.51
2023-10-05T10:52:53.603Z,56.60
2023-10-05T10:55:24.466Z,56.85
2023-10-05T10:57:55.824Z,57.04
2023-10-05T11:00:39.420Z,57.31
2023-10-05T11:03:19.086Z,57.41
2023-10-05T11:05:59.585Z,57.38
2023-10-05T11:08:32.764Z,57.29
2023-10-05T11:11:25.264Z,57.38
2023-10-05T11:14:07.571Z,57.56
2023-10-05T11:16:48.081Z,57.67
2023-10-05T11:19:32.864Z,57.51
2023-10-05T11:22:08.247Z,57.78
2023-10-05T11:24:41.012Z,57.74
2023-10-05T11:27:17.571Z,57.75
2023-10-05T11:29:57.969Z,57.76
2023-10-05T11:32:41.346Z,57.84
2023-10-05T11:35:31.014Z,57.87
2023-10-05T11:38:10.133Z,57.90
2023-10-05T11:40:50.195Z,58.02
2023-10-05T11:43:20.310Z,58.02
2023-10-05T11:46:02.583Z,58.28
2023-10-05T11:48:57.731Z,58.05
2023-10-05T11:51:38.226Z,58.39
2023-10-05T11:54:06.604Z,58.27
2023-10-05T11:56:35.097Z,58.40
2023-10-05T11:59:03.629Z,58.34
2023-10-05T12:01:34.317Z,58.64
2023-10-05T12:04:09.315Z,58.59
2023-10-05T12:06:41.561Z,58.47
2023-10-05T12:09:10.109Z,58.64
2023-10-05T12:11:43.053Z,58.61
2023-10-05T12:14:11.378Z,58.59
2023-10-05T12:16:40.839Z,58.69
2023-10-05T12:19:23.394Z,58.93
2023-10-05T12:21:51.620Z,58.89
2023-10-05T12:24:19.840Z,58.86
2023-10-05T12:26:48.017Z,58.94
2023-10-05T12:29:16.335Z,58.95
2023-10-05T12:31:49.295Z,59.22
2023-10-05T12:36:56.066Z,59.42
2023-10-05T12:39:29.818Z,59.52
2023-10-05T12:41:58.375Z,59.35
2023-10-05T12:44:26.785Z,59.71
2023-10-05T12:46:55.637Z,59.60
2023-10-05T12:49:24.034Z,59.82
2023-10-05T12:51:52.436Z,59.88
2023-10-05T12:54:20.754Z,59.92
2023-10-05T12:56:51.902Z,59.77
2023-10-05T12:59:21.998Z,60.01
2023-10-05T13:01:50.656Z,60.13
2023-10-05T13:04:20.226Z,60.20
2023-10-05T13:06:48.921Z,60.25
2023-10-05T13:09:21.085Z,60.31
2023-10-05T13:11:52.384Z,60.41
2023-10-05T13:14:21.261Z,60.33
2023-10-05T13:16:50.227Z,60.48
2023-10-05T13:19:20.405Z,60.54
2023-10-05T13:21:48.957Z,60.63
2023-10-05T13:24:17.551Z,60.69
2023-10-05T13:26:46.548Z,60.95
2023-10-05T13:29:18.334Z,60.74
2023-10-05T13:31:47.607Z,60.88
2023-10-05T13:34:18.565Z,60.92
2023-10-05T13:36:46.989Z,61.03
2023-10-05T13:39:22.981Z,61.07
2023-10-05T13:42:02.077Z,61.16
2023-10-05T13:44:30.661Z,61.18
2023-10-05T13:47:03.554Z,61.26
2023-10-05T13:49:38.156Z,61.17
2023-10-05T13:52:08.334Z,61.47
2023-10-05T13:54:39.354Z,61.27
2023-10-05T13:57:09.421Z,61.41
2023-10-05T13:59:39.746Z,61.28
2023-10-05T14:02:09.983Z,61.52
2023-10-05T14:04:40.208Z,61.64
2023-10-05T14:07:09.616Z,61.68
2023-10-05T14:09:46.136Z,61.71
2023-10-05T14:12:14.655Z,61.78
2023-10-05T14:14:42.894Z,61.91
2023-10-05T14:17:11.193Z,61.99
2023-10-05T14:19:40.811Z,62.12
2023-10-05T14:22:11.389Z,61.78
2023-10-05T14:24:39.762Z,62.06
2023-10-05T14:27:08.823Z,62.12
2023-10-05T14:29:37.386Z,62.21
2023-10-05T14:32:07.263Z,62.20
2023-10-05T14:34:37.174Z,62.32
2023-10-05T14:37:09.691Z,62.37
2023-10-05T14:39:39.127Z,62.41
2023-10-05T14:42:11.653Z,62.48
2023-10-05T14:44:40.478Z,62.46
2023-10-05T14:47:14.301Z,62.57
2023-10-05T14:49:42.707Z,62.46
2023-10-05T14:52:11.049Z,62.44
2023-10-05T14:54:40.249Z,62.63
2023-10-05T14:57:10.542Z,62.55
2023-10-05T14:59:42.333Z,62.50
2023-10-05T15:02:10.687Z,62.47
2023-10-05T15:04:39.054Z,62.55
2023-10-05T15:07:07.322Z,62.39
2023-10-05T15:09:36.451Z,62.40
2023-10-05T15:12:06.500Z,62.58
2023-10-05T15:14:34.839Z,62.42
2023-10-05T15:17:03.751Z,62.48
2023-10-05T15:19:32.563Z,62.37
2023-10-05T15:22:01.392Z,62.06
2023-10-05T15:24:32.894Z,62.06
2023-10-05T15:27:01.184Z,62.11
2023-10-05T15:29:29.746Z,62.05
2023-10-05T15:31:58.739Z,61.84
2023-10-05T15:34:27.408Z,61.88
2023-10-05T15:36:58.526Z,61.47
2023-10-05T15:39:26.990Z,61.47
2023-10-05T15:41:55.272Z,61.02
2023-10-05T15:44:23.535Z,60.91
2023-10-05T15:46:51.980Z,60.34
2023-10-05T15:49:20.638Z,60.11
2023-10-05T15:51:48.940Z,59.75
2023-10-05T15:54:17.194Z,59.70
2023-10-05T15:56:47.985Z,59.49
2023-10-05T15:59:16.436Z,59.38
2023-10-05T16:01:44.737Z,59.09
2023-10-05T16:04:13.210Z,58.95
2023-10-05T16:06:41.565Z,58.86
2023-10-05T16:09:09.911Z,58.69
2023-10-05T16:11:38.245Z,58.40
2023-10-05T16:14:10.361Z,58.18
2023-10-05T16:16:38.819Z,57.85
2023-10-05T16:19:10.695Z,57.82
2023-10-05T16:21:41.045Z,57.63
2023-10-05T16:24:10.045Z,57.57
2023-10-05T16:26:38.319Z,57.67
2023-10-05T16:29:06.951Z,57.57
2023-10-05T16:31:36.355Z,57.78
2023-10-05T16:34:04.927Z,57.33
2023-10-05T16:36:33.370Z,57.48
2023-10-05T16:39:01.609Z,57.19
2023-10-05T16:41:29.953Z,57.38
2023-10-05T16:44:00.287Z,57.41
2023-10-05T16:46:29.687Z,57.12
2023-10-05T16:48:59.600Z,56.75
2023-10-05T16:51:28.187Z,56.86
2023-10-05T16:53:56.436Z,56.48
2023-10-05T16:56:39.906Z,56.43
2023-10-05T16:59:14.002Z,56.19
2023-10-05T17:01:42.300Z,56.05
2023-10-05T17:04:10.727Z,55.71
2023-10-05T17:06:39.008Z,55.44
2023-10-05T17:09:12.132Z,55.32
2023-10-05T17:11:40.521Z,54.88
2023-10-05T17:14:10.121Z,54.34
2023-10-05T17:16:38.464Z,53.72
2023-10-05T17:19:07.066Z,53.52
2023-10-05T17:21:35.684Z,53.45
2023-10-05T17:24:17.606Z,53.03
2023-10-05T17:26:48.733Z,52.59
2023-10-05T17:29:17.099Z,52.28
2023-10-05T17:31:46.335Z,52.64
2023-10-05T17:34:14.717Z,52.31
2023-10-05T17:36:43.138Z,52.33
2023-10-05T17:39:11.464Z,52.15
2023-10-05T17:41:39.782Z,51.87
2023-10-05T17:44:08.118Z,51.40
2023-10-05T17:46:36.483Z,51.25
2023-10-05T17:49:05.001Z,51.11
2023-10-05T17:51:33.271Z,50.45
2023-10-05T17:54:01.626Z,50.40
2023-10-05T17:56:29.875Z,50.57
2023-10-05T17:58:58.177Z,50.32
2023-10-05T18:01:26.632Z,50.60
2023-10-05T18:03:55.773Z,50.51
2023-10-05T18:06:24.289Z,49.71
2023-10-05T18:08:52.601Z,49.71
2023-10-05T18:11:24.636Z,49.37
2023-10-05T18:13:54.475Z,48.79
2023-10-05T18:16:22.995Z,48.74
2023-10-05T18:18:52.729Z,48.34
2023-10-05T18:21:21.015Z,47.79
2023-10-05T18:23:50.827Z,47.55
2023-10-05T18:26:19.698Z,47.52
2023-10-05T18:28:48.020Z,47.32
2023-10-05T18:31:16.435Z,47.00
2023-10-05T18:33:45.142Z,46.77
2023-10-05T18:36:13.466Z,46.48
2023-10-05T18:38:41.837Z,46.58
2023-10-05T18:41:10.194Z,45.92
2023-10-05T18:43:38.557Z,46.09
2023-10-05T18:46:06.910Z,45.93
2023-10-05T18:48:36.430Z,45.47
2023-10-05T18:51:08.583Z,45.24
2023-10-05T18:53:40.353Z,45.02
2023-10-05T18:56:09.986Z,44.77
2023-10-05T18:58:38.422Z,44.46
2023-10-05T19:01:08.091Z,44.49
2023-10-05T19:03:37.177Z,44.12
2023-10-05T19:06:08.974Z,44.02
2023-10-05T19:08:37.314Z,43.35
2023-10-05T19:11:11.802Z,43.32
2023-10-05T19:13:40.358Z,43.02
2023-10-05T19:16:10.613Z,42.76
2023-10-05T19:18:39.692Z,42.70
2023-10-05T19:21:13.402Z,42.30
2023-10-05T19:23:44.076Z,41.86
2023-10-05T19:26:12.354Z,41.74
2023-10-05T19:28:40.734Z,41.58
2023-10-05T19:31:09.143Z,41.68
2023-10-05T19:33:37.462Z,41.41
2023-10-05T19:36:07.995Z,40.83
2023-10-05T19:38:36.282Z,40.61
2023-10-05T19:41:05.069Z,40.48
2023-10-05T19:43:34.159Z,40.55
2023-10-05T19:46:02.495Z,40.81
2023-10-05T19:48:30.865Z,40.31
2023-10-05T19:50:59.223Z,40.16
2023-10-05T19:53:27.560Z,39.92
2023-10-05T19:56:00.231Z,39.34
2023-10-05T19:58:28.613Z,39.05
2023-10-05T20:00:57.319Z,38.66
2023-10-05T20:03:25.950Z,38.50
2023-10-05T20:05:54.361Z,38.08
2023-10-05T20:08:22.676Z,37.66
2023-10-05T20:10:50.968Z,37.68
2023-10-05T20:13:20.936Z,37.14
2023-10-05T20:15:49.258Z,36.96
2023-10-05T20:18:18.097Z,36.68
2023-10-05T20:20:46.630Z,36.46
2023-10-05T20:23:14.906Z,36.57
2023-10-05T20:25:43.389Z,36.17
2023-10-05T20:28:12.229Z,36.08
2023-10-05T20:30:40.810Z,35.67
2023-10-05T20:33:10.323Z,35.80
2023-10-05T20:35:38.755Z,35.30
2023-10-05T20:38:09.256Z,35.28
2023-10-05T20:40:38.626Z,35.14
2023-10-05T20:43:07.566Z,34.98
2023-10-05T20:45:39.804Z,34.79
2023-10-05T20:48:08.257Z,34.11
2023-10-05T20:50:36.622Z,34.12
2023-10-05T20:53:05.164Z,33.97
2023-10-05T20:55:33.523Z,33.47
2023-10-05T20:58:01.784Z,33.37
2023-10-05T21:00:30.582Z,33.42
2023-10-05T21:02:58.835Z,33.39
2023-10-05T21:05:27.427Z,33.27
2023-10-05T21:07:55.797Z,33.02
2023-10-05T21:10:24.196Z,32.80
2023-10-05T21:12:52.717Z,32.52
2023-10-05T21:15:22.415Z,32.43
2023-10-05T21:17:51.425Z,31.84
2023-10-05T21:20:19.826Z,31.71
2023-10-05T21:22:48.155Z,31.48
2023-10-05T21:25:16.900Z,31.79
2023-10-05T21:27:45.169Z,31.25
2023-10-05T21:30:13.663Z,31.08
2023-10-05T21:32:42.019Z,30.99
2023-10-05T21:35:10.926Z,30.43
2023-10-05T21:37:39.238Z,30.67
2023-10-05T21:40:08.398Z,30.22
2023-10-05T21:42:36.655Z,29.99
2023-10-05T21:45:15.833Z,29.69
2023-10-05T21:47:45.803Z,29.75
2023-10-05T21:50:15.400Z,28.98
2023-10-05T21:52:44.417Z,29.05
2023-10-05T21:55:13.333Z,29.23
2023-10-05T21:57:41.710Z,28.98
2023-10-05T22:00:11.253Z,28.68
2023-10-05T22:02:40.121Z,28.62
2023-10-05T22:05:08.812Z,28.33
2023-10-05T22:07:41.017Z,28.18
2023-10-05T22:10:13.641Z,27.92
2023-10-05T22:12:41.978Z,27.46
2023-10-05T22:15:12.160Z,27.08
2023-10-05T22:17:40.522Z,27.17
2023-10-05T22:20:14.591Z,27.02
2023-10-05T22:22:43.100Z,26.85
2023-10-05T22:25:12.164Z,26.71
2023-10-05T22:27:40.439Z,27.00
2023-10-05T22:30:09.950Z,26.03
2023-10-05T22:32:38.648Z,25.92
2023-10-05T22:35:07.470Z,25.88
2023-10-05T22:37:36.133Z,26.00
2023-10-05T22:40:05.321Z,26.34
2023-10-05T22:42:36.602Z,26.15
2023-10-05T22:45:05.181Z,25.92
2023-10-05T22:47:34.490Z,25.83
2023-10-05T22:50:03.130Z,26.75
2023-10-05T22:52:32.737Z,26.09
2023-10-05T22:55:01.364Z,26.18
2023-10-05T22:57:29.750Z,26.48
2023-10-05T22:59:58.130Z,26.55
2023-10-05T23:02:26.669Z,26.47
2023-10-05T23:04:55.169Z,26.69
2023-10-05T23:07:23.600Z,26.75
2023-10-05T23:09:54.910Z,26.43
2023-10-05T23:12:23.202Z,26.74
2023-10-05T23:14:52.063Z,26.54
2023-10-05T23:17:24.250Z,27.06
2023-10-05T23:19:52.694Z,26.76
2023-10-05T23:22:21.300Z,26.87
2023-10-05T23:24:49.849Z,26.71
2023-10-05T23:27:18.241Z,26.50
2023-10-05T23:29:46.650Z,26.55
2023-10-05T23:32:15.072Z,26.39
2023-10-05T23:34:43.774Z,26.10
2023-10-05T23:37:13.695Z,26.34
2023-10-05T23:39:42.381Z,26.18
2023-10-05T23:42:14.857Z,26.31
2023-10-05T23:44:43.777Z,26.31
2023-10-05T23:47:24.874Z,26.31
2023-10-05T23:49:55.116Z,25.79
2023-10-05T23:52:23.913Z,25.84
2023-10-05T23:54:52.134Z,26.13
2023-10-05T23:57:22.527Z,25.72
2023-10-05T23:59:51.286Z,25.73
